Levadhia, Greece
Current Conditions -  °F | °C
As of 12:20 PM on Tuesday 27 Jan 2015 (Local Time) from LGTG Reporting Station
Broken Clouds Broken Clouds  
Wind Chill: 48°   Ceiling: 8000
Heat Index: 48°   Visibility: 4mi
Dew Point: 46°   Wind: 0mph
Humidity: 93%   Direction: NA
Pressure: 29.85"   Gusts: NA
Location:  38.44°N, 22.87°E
Report Text: LGTG 271020Z 00000KT 6000 FEW010 SCT025 BKN080 09/08 Q1011 WHT
Loading
Personal Weather Stations






























Interactive Weather Map New forecast layout! Learn more

10-Day Weather Forecast

Advertisements
Track Severe Weather on mobile